sensor_id;sensor_type;location;lat;lon;timestamp;pressure;altitude;pressure_sealevel;temperature;humidity
60319;BME280;46163;52.306;5.634;2023-08-20T00:00:29;101943.44;;;15.64;92.37
60319;BME280;46163;52.306;5.634;2023-08-20T00:03:10;101940.53;;;15.66;92.07
60319;BME280;46163;52.306;5.634;2023-08-20T00:05:37;101937.00;;;15.59;91.81
60319;BME280;46163;52.306;5.634;2023-08-20T00:08:03;101954.34;;;15.56;91.90
60319;BME280;46163;52.306;5.634;2023-08-20T00:10:30;101953.09;;;15.52;91.82
60319;BME280;46163;52.306;5.634;2023-08-20T00:12:55;101947.72;;;15.45;92.34
60319;BME280;46163;52.306;5.634;2023-08-20T00:15:21;101961.34;;;15.57;93.64
60319;BME280;46163;52.306;5.634;2023-08-20T00:17:52;101952.25;;;15.51;92.39
60319;BME280;46163;52.306;5.634;2023-08-20T00:20:18;101937.81;;;15.46;92.53
60319;BME280;46163;52.306;5.634;2023-08-20T00:22:44;101951.88;;;15.61;92.88
60319;BME280;46163;52.306;5.634;2023-08-20T00:25:13;101957.84;;;15.63;92.84
60319;BME280;46163;52.306;5.634;2023-08-20T00:27:40;101955.16;;;15.63;92.32
60319;BME280;46163;52.306;5.634;2023-08-20T00:30:06;101950.66;;;15.64;92.44
60319;BME280;46163;52.306;5.634;2023-08-20T00:32:32;101964.06;;;15.70;92.58
60319;BME280;46163;52.306;5.634;2023-08-20T00:34:58;101961.78;;;15.74;93.56
60319;BME280;46163;52.306;5.634;2023-08-20T00:37:24;101961.16;;;15.78;92.47
60319;BME280;46163;52.306;5.634;2023-08-20T00:39:50;101956.41;;;15.80;92.76
60319;BME280;46163;52.306;5.634;2023-08-20T00:42:15;101957.03;;;15.82;92.78
60319;BME280;46163;52.306;5.634;2023-08-20T00:44:41;101977.06;;;16.00;92.40
60319;BME280;46163;52.306;5.634;2023-08-20T00:47:10;101970.44;;;16.02;92.38
60319;BME280;46163;52.306;5.634;2023-08-20T00:49:36;101964.25;;;15.95;92.41
60319;BME280;46163;52.306;5.634;2023-08-20T00:52:04;101976.19;;;16.06;91.53
60319;BME280;46163;52.306;5.634;2023-08-20T00:54:31;101973.53;;;15.93;91.50
60319;BME280;46163;52.306;5.634;2023-08-20T00:56:59;101975.41;;;15.92;92.45
60319;BME280;46163;52.306;5.634;2023-08-20T00:59:24;101988.19;;;15.97;92.34
60319;BME280;46163;52.306;5.634;2023-08-20T01:01:50;101987.38;;;15.90;92.48
60319;BME280;46163;52.306;5.634;2023-08-20T01:04:16;101986.97;;;15.93;92.51
60319;BME280;46163;52.306;5.634;2023-08-20T01:07:07;101996.47;;;15.95;92.04
60319;BME280;46163;52.306;5.634;2023-08-20T01:09:50;101991.09;;;15.89;92.03
60319;BME280;46163;52.306;5.634;2023-08-20T01:12:17;101991.50;;;15.86;92.52
60319;BME280;46163;52.306;5.634;2023-08-20T01:14:43;101983.47;;;15.79;92.05
60319;BME280;46163;52.306;5.634;2023-08-20T01:17:08;101983.66;;;15.71;92.10
60319;BME280;46163;52.306;5.634;2023-08-20T01:19:34;102002.03;;;15.80;92.64
60319;BME280;46163;52.306;5.634;2023-08-20T01:25:24;102029.50;;;15.76;93.15
60319;BME280;46163;52.306;5.634;2023-08-20T01:30:44;102023.94;;;15.64;92.74
60319;BME280;46163;52.306;5.634;2023-08-20T01:33:11;102015.06;;;15.64;92.80
60319;BME280;46163;52.306;5.634;2023-08-20T01:35:38;102018.31;;;15.59;92.73
60319;BME280;46163;52.306;5.634;2023-08-20T01:38:04;102020.38;;;15.50;92.88
60319;BME280;46163;52.306;5.634;2023-08-20T01:40:30;102017.47;;;15.39;93.05
60319;BME280;46163;52.306;5.634;2023-08-20T01:42:56;102018.28;;;15.39;93.82
60319;BME280;46163;52.306;5.634;2023-08-20T01:45:22;102038.13;;;15.58;93.80
60319;BME280;46163;52.306;5.634;2023-08-20T01:47:47;102041.47;;;15.67;93.51
60319;BME280;46163;52.306;5.634;2023-08-20T01:50:13;102047.66;;;15.67;93.46
60319;BME280;46163;52.306;5.634;2023-08-20T01:52:38;102035.50;;;15.65;93.03
60319;BME280;46163;52.306;5.634;2023-08-20T01:55:05;102041.84;;;15.57;92.84
60319;BME280;46163;52.306;5.634;2023-08-20T01:57:30;102039.16;;;15.57;93.04
60319;BME280;46163;52.306;5.634;2023-08-20T01:59:58;102027.19;;;15.46;93.01
60319;BME280;46163;52.306;5.634;2023-08-20T02:02:24;102030.03;;;15.45;94.01
60319;BME280;46163;52.306;5.634;2023-08-20T02:04:52;102036.88;;;15.47;94.10
60319;BME280;46163;52.306;5.634;2023-08-20T02:07:17;102052.56;;;15.50;94.01
60319;BME280;46163;52.306;5.634;2023-08-20T02:09:43;102037.47;;;15.43;93.25
60319;BME280;46163;52.306;5.634;2023-08-20T02:12:08;102044.69;;;15.36;93.54
60319;BME280;46163;52.306;5.634;2023-08-20T02:14:34;102054.84;;;15.47;93.73
60319;BME280;46163;52.306;5.634;2023-08-20T02:17:03;102031.09;;;15.44;93.43
60319;BME280;46163;52.306;5.634;2023-08-20T02:19:31;102044.91;;;15.41;93.21
60319;BME280;46163;52.306;5.634;2023-08-20T02:21:56;102022.41;;;15.35;93.65
60319;BME280;46163;52.306;5.634;2023-08-20T02:24:22;102034.16;;;15.34;93.37
60319;BME280;46163;52.306;5.634;2023-08-20T02:26:47;102013.09;;;15.24;93.63
60319;BME280;46163;52.306;5.634;2023-08-20T02:29:13;102025.06;;;15.22;94.02
60319;BME280;46163;52.306;5.634;2023-08-20T02:31:38;102038.88;;;15.25;93.88
60319;BME280;46163;52.306;5.634;2023-08-20T02:34:04;102008.91;;;15.02;93.81
60319;BME280;46163;52.306;5.634;2023-08-20T02:36:29;102023.16;;;15.09;93.99
60319;BME280;46163;52.306;5.634;2023-08-20T02:38:55;102016.56;;;15.05;94.24
60319;BME280;46163;52.306;5.634;2023-08-20T02:41:20;102002.28;;;14.98;94.32
60319;BME280;46163;52.306;5.634;2023-08-20T02:43:46;102010.34;;;14.98;94.46
60319;BME280;46163;52.306;5.634;2023-08-20T02:46:11;102005.78;;;14.92;94.62
60319;BME280;46163;52.306;5.634;2023-08-20T02:48:37;101993.81;;;14.88;95.40
60319;BME280;46163;52.306;5.634;2023-08-20T02:51:02;101986.16;;;14.85;95.16
60319;BME280;46163;52.306;5.634;2023-08-20T02:53:28;101996.50;;;14.88;95.62
60319;BME280;46163;52.306;5.634;2023-08-20T02:55:54;102001.69;;;15.03;95.50
60319;BME280;46163;52.306;5.634;2023-08-20T02:58:19;101993.84;;;15.01;95.18
60319;BME280;46163;52.306;5.634;2023-08-20T03:00:47;101982.50;;;14.99;94.81
60319;BME280;46163;52.306;5.634;2023-08-20T03:03:13;101999.25;;;15.14;94.96
60319;BME280;46163;52.306;5.634;2023-08-20T03:05:39;101998.63;;;15.12;94.63
60319;BME280;46163;52.306;5.634;2023-08-20T03:08:05;101994.69;;;15.08;94.62
60319;BME280;46163;52.306;5.634;2023-08-20T03:10:31;102003.78;;;15.07;94.14
60319;BME280;46163;52.306;5.634;2023-08-20T03:13:02;102010.34;;;14.98;93.99
60319;BME280;46163;52.306;5.634;2023-08-20T03:15:30;102006.19;;;14.89;94.22
60319;BME280;46163;52.306;5.634;2023-08-20T03:17:58;102011.09;;;14.85;94.38
60319;BME280;46163;52.306;5.634;2023-08-20T03:20:23;102008.25;;;14.87;94.88
60319;BME280;46163;52.306;5.634;2023-08-20T03:22:49;101988.59;;;14.73;94.40
60319;BME280;46163;52.306;5.634;2023-08-20T03:25:14;102007.38;;;14.80;94.69
60319;BME280;46163;52.306;5.634;2023-08-20T03:27:40;102013.53;;;14.74;94.50
60319;BME280;46163;52.306;5.634;2023-08-20T03:30:06;102009.63;;;14.69;94.44
60319;BME280;46163;52.306;5.634;2023-08-20T03:32:34;102014.56;;;14.73;94.76
60319;BME280;46163;52.306;5.634;2023-08-20T03:35:00;102007.31;;;14.60;94.80
60319;BME280;46163;52.306;5.634;2023-08-20T03:37:26;101998.38;;;14.46;94.95
60319;BME280;46163;52.306;5.634;2023-08-20T03:39:53;102023.19;;;14.61;95.52
60319;BME280;46163;52.306;5.634;2023-08-20T03:42:19;102021.75;;;14.65;95.98
60319;BME280;46163;52.306;5.634;2023-08-20T03:44:47;102028.38;;;14.69;95.64
60319;BME280;46163;52.306;5.634;2023-08-20T03:47:12;102035.81;;;14.74;95.44
60319;BME280;46163;52.306;5.634;2023-08-20T03:49:38;102033.13;;;14.74;95.18
60319;BME280;46163;52.306;5.634;2023-08-20T03:52:03;102044.94;;;14.86;94.97
60319;BME280;46163;52.306;5.634;2023-08-20T03:54:29;102042.66;;;14.83;94.81
60319;BME280;46163;52.306;5.634;2023-08-20T03:56:55;102047.78;;;14.78;95.47
60319;BME280;46163;52.306;5.634;2023-08-20T03:59:21;102051.50;;;14.84;95.25
60319;BME280;46163;52.306;5.634;2023-08-20T04:01:46;102047.41;;;14.88;95.08
60319;BME280;46163;52.306;5.634;2023-08-20T04:04:11;102054.72;;;15.07;94.82
60319;BME280;46163;52.306;5.634;2023-08-20T04:06:37;102057.81;;;15.11;93.85
60319;BME280;46163;52.306;5.634;2023-08-20T04:09:02;102052.44;;;15.04;93.84
60319;BME280;46163;52.306;5.634;2023-08-20T04:11:28;102055.75;;;15.06;94.15
60319;BME280;46163;52.306;5.634;2023-08-20T04:13:54;102058.63;;;15.11;94.41
60319;BME280;46163;52.306;5.634;2023-08-20T04:16:19;102063.00;;;15.12;94.59
60319;BME280;46163;52.306;5.634;2023-08-20T04:18:45;102054.09;;;15.05;94.03
60319;BME280;46163;52.306;5.634;2023-08-20T04:21:10;102062.34;;;15.04;94.31
60319;BME280;46163;52.306;5.634;2023-08-20T04:23:36;102068.31;;;15.06;94.88
60319;BME280;46163;52.306;5.634;2023-08-20T04:26:04;102073.25;;;15.02;94.71
60319;BME280;46163;52.306;5.634;2023-08-20T04:28:29;102069.94;;;15.00;94.96
60319;BME280;46163;52.306;5.634;2023-08-20T04:30:55;102067.69;;;15.04;95.07
60319;BME280;46163;52.306;5.634;2023-08-20T04:33:21;102084.63;;;15.11;94.29
60319;BME280;46163;52.306;5.634;2023-08-20T04:35:48;102079.88;;;15.06;94.90
60319;BME280;46163;52.306;5.634;2023-08-20T04:38:15;102068.69;;;15.03;94.23
60319;BME280;46163;52.306;5.634;2023-08-20T04:40:41;102076.78;;;15.09;94.46
60319;BME280;46163;52.306;5.634;2023-08-20T04:43:06;102077.41;;;15.11;94.88
60319;BME280;46163;52.306;5.634;2023-08-20T04:45:34;102075.13;;;15.08;94.77
60319;BME280;46163;52.306;5.634;2023-08-20T04:48:00;102075.34;;;15.07;94.97
60319;BME280;46163;52.306;5.634;2023-08-20T04:50:25;102071.38;;;14.96;94.33
60319;BME280;46163;52.306;5.634;2023-08-20T04:52:50;102085.44;;;15.05;95.31
60319;BME280;46163;52.306;5.634;2023-08-20T04:55:16;102083.53;;;14.98;94.93
60319;BME280;46163;52.306;5.634;2023-08-20T04:57:41;102072.63;;;15.00;94.97
60319;BME280;46163;52.306;5.634;2023-08-20T05:00:07;102075.94;;;15.09;94.76
60319;BME280;46163;52.306;5.634;2023-08-20T05:02:35;102086.88;;;15.07;94.77
60319;BME280;46163;52.306;5.634;2023-08-20T05:05:01;102082.13;;;15.09;95.41
60319;BME280;46163;52.306;5.634;2023-08-20T05:07:29;102079.25;;;15.11;94.99
60319;BME280;46163;52.306;5.634;2023-08-20T05:09:55;102085.47;;;15.18;95.02
60319;BME280;46163;52.306;5.634;2023-08-20T05:12:22;102079.91;;;15.19;94.35
60319;BME280;46163;52.306;5.634;2023-08-20T05:14:48;102094.16;;;15.26;94.47
60319;BME280;46163;52.306;5.634;2023-08-20T05:17:13;102093.38;;;15.33;94.43
60319;BME280;46163;52.306;5.634;2023-08-20T05:19:39;102052.44;;;15.11;95.27
60319;BME280;46163;52.306;5.634;2023-08-20T05:22:04;102087.19;;;15.32;95.22
60319;BME280;46163;52.306;5.634;2023-08-20T05:24:32;102091.09;;;15.30;94.86
60319;BME280;46163;52.306;5.634;2023-08-20T05:27:08;102090.06;;;15.31;94.84
60319;BME280;46163;52.306;5.634;2023-08-20T05:29:37;102085.75;;;15.30;95.36
60319;BME280;46163;52.306;5.634;2023-08-20T05:32:04;102075.84;;;15.30;95.28
60319;BME280;46163;52.306;5.634;2023-08-20T05:34:29;102076.88;;;15.36;95.05
60319;BME280;46163;52.306;5.634;2023-08-20T05:36:54;102080.81;;;15.40;95.62
60319;BME280;46163;52.306;5.634;2023-08-20T05:39:20;102071.28;;;15.37;95.03
60319;BME280;46163;52.306;5.634;2023-08-20T05:41:48;102069.44;;;15.31;95.02
60319;BME280;46163;52.306;5.634;2023-08-20T05:44:13;102058.94;;;15.30;95.80
60319;BME280;46163;52.306;5.634;2023-08-20T05:46:38;102088.03;;;15.46;95.51
60319;BME280;46163;52.306;5.634;2023-08-20T05:49:06;102063.25;;;15.37;95.31
60319;BME280;46163;52.306;5.634;2023-08-20T05:51:34;102084.78;;;15.57;95.29
60319;BME280;46163;52.306;5.634;2023-08-20T05:54:01;102093.66;;;15.58;95.85
60319;BME280;46163;52.306;5.634;2023-08-20T05:56:27;102090.81;;;15.66;95.37
60319;BME280;46163;52.306;5.634;2023-08-20T05:58:52;102089.81;;;15.73;95.13
60319;BME280;46163;52.306;5.634;2023-08-20T06:01:18;102088.56;;;15.82;94.83
60319;BME280;46163;52.306;5.634;2023-08-20T06:03:45;102087.13;;;16.00;94.07
60319;BME280;46163;52.306;5.634;2023-08-20T06:06:13;102095.59;;;16.03;94.32
60319;BME280;46163;52.306;5.634;2023-08-20T06:08:39;102088.78;;;16.07;94.26
60319;BME280;46163;52.306;5.634;2023-08-20T06:11:04;102093.09;;;16.15;93.67
60319;BME280;46163;52.306;5.634;2023-08-20T06:13:29;102095.81;;;16.28;93.23
60319;BME280;46163;52.306;5.634;2023-08-20T06:15:55;102090.22;;;16.36;92.66
60319;BME280;46163;52.306;5.634;2023-08-20T06:18:20;102089.78;;;16.39;92.70
60319;BME280;46163;52.306;5.634;2023-08-20T06:20:46;102081.34;;;16.43;92.30
60319;BME280;46163;52.306;5.634;2023-08-20T06:23:11;102093.09;;;16.48;92.50
60319;BME280;46163;52.306;5.634;2023-08-20T06:25:38;102081.50;;;16.54;92.20
60319;BME280;46163;52.306;5.634;2023-08-20T06:28:03;102066.63;;;16.52;91.72
60319;BME280;46163;52.306;5.634;2023-08-20T06:30:29;102079.63;;;16.68;91.65
60319;BME280;46163;52.306;5.634;2023-08-20T06:32:54;102088.94;;;16.79;91.43
60319;BME280;46163;52.306;5.634;2023-08-20T06:35:20;102065.19;;;16.69;91.71
60319;BME280;46163;52.306;5.634;2023-08-20T06:37:45;102082.50;;;16.86;91.58
60319;BME280;46163;52.306;5.634;2023-08-20T06:40:11;102083.88;;;17.02;89.99
60319;BME280;46163;52.306;5.634;2023-08-20T06:42:36;102090.47;;;17.06;90.38
60319;BME280;46163;52.306;5.634;2023-08-20T06:45:01;102087.34;;;17.16;90.17
60319;BME280;46163;52.306;5.634;2023-08-20T06:47:29;102081.97;;;17.16;90.54
60319;BME280;46163;52.306;5.634;2023-08-20T06:49:54;102091.00;;;17.28;90.42
60319;BME280;46163;52.306;5.634;2023-08-20T06:52:22;102090.97;;;17.35;89.98
60319;BME280;46163;52.306;5.634;2023-08-20T06:54:50;102093.59;;;17.48;89.75
60319;BME280;46163;52.306;5.634;2023-08-20T06:57:15;102083.25;;;17.83;87.03
60319;BME280;46163;52.306;5.634;2023-08-20T06:59:43;102097.66;;;17.95;86.69
60319;BME280;46163;52.306;5.634;2023-08-20T07:02:09;102101.75;;;17.98;86.91
60319;BME280;46163;52.306;5.634;2023-08-20T07:04:37;102105.63;;;18.08;87.42
60319;BME280;46163;52.306;5.634;2023-08-20T07:07:05;102100.13;;;18.22;86.15
60319;BME280;46163;52.306;5.634;2023-08-20T07:09:30;102098.63;;;18.51;85.72
60319;BME280;46163;52.306;5.634;2023-08-20T07:11:56;102101.09;;;19.26;81.49
60319;BME280;46163;52.306;5.634;2023-08-20T07:14:21;102091.63;;;19.05;81.67
60319;BME280;46163;52.306;5.634;2023-08-20T07:16:49;102103.25;;;18.87;83.25
60319;BME280;46163;52.306;5.634;2023-08-20T07:19:15;102085.41;;;18.68;84.05
60319;BME280;46163;52.306;5.634;2023-08-20T07:21:40;102086.44;;;18.67;84.54
60319;BME280;46163;52.306;5.634;2023-08-20T07:24:06;102089.75;;;18.69;85.07
60319;BME280;46163;52.306;5.634;2023-08-20T07:26:31;102084.50;;;18.92;83.52
60319;BME280;46163;52.306;5.634;2023-08-20T07:28:59;102088.78;;;20.95;75.39
60319;BME280;46163;52.306;5.634;2023-08-20T07:31:33;102083.88;;;23.59;64.74
60319;BME280;46163;52.306;5.634;2023-08-20T07:34:00;102096.91;;;25.26;56.74
60319;BME280;46163;52.306;5.634;2023-08-20T07:36:26;102103.50;;;26.32;53.49
60319;BME280;46163;52.306;5.634;2023-08-20T07:38:59;102096.63;;;28.08;49.29
60319;BME280;46163;52.306;5.634;2023-08-20T07:41:26;102092.19;;;29.83;46.70
60319;BME280;46163;52.306;5.634;2023-08-20T07:43:51;102084.66;;;30.49;45.60
60319;BME280;46163;52.306;5.634;2023-08-20T07:46:18;102097.16;;;31.24;41.72
60319;BME280;46163;52.306;5.634;2023-08-20T07:48:44;102092.47;;;32.54;41.89
60319;BME280;46163;52.306;5.634;2023-08-20T07:51:14;102104.50;;;31.96;39.79
60319;BME280;46163;52.306;5.634;2023-08-20T07:53:40;102104.97;;;32.51;39.75
60319;BME280;46163;52.306;5.634;2023-08-20T07:56:06;102116.75;;;31.67;40.34
60319;BME280;46163;52.306;5.634;2023-08-20T07:58:31;102110.28;;;32.87;40.40
60319;BME280;46163;52.306;5.634;2023-08-20T08:00:57;102112.94;;;32.61;38.00
60319;BME280;46163;52.306;5.634;2023-08-20T08:03:27;102108.75;;;34.20;36.13
60319;BME280;46163;52.306;5.634;2023-08-20T08:05:53;102110.09;;;34.81;36.40
60319;BME280;46163;52.306;5.634;2023-08-20T08:08:19;102102.84;;;34.30;33.38
60319;BME280;46163;52.306;5.634;2023-08-20T08:10:48;102124.78;;;34.35;35.60
60319;BME280;46163;52.306;5.634;2023-08-20T08:13:22;102123.81;;;34.40;33.13
60319;BME280;46163;52.306;5.634;2023-08-20T08:15:48;102122.97;;;35.07;35.65
60319;BME280;46163;52.306;5.634;2023-08-20T08:18:16;102116.97;;;36.01;34.54
60319;BME280;46163;52.306;5.634;2023-08-20T08:20:41;102131.91;;;36.33;33.39
60319;BME280;46163;52.306;5.634;2023-08-20T08:23:07;102121.31;;;36.47;32.71
60319;BME280;46163;52.306;5.634;2023-08-20T08:26:05;102133.91;;;36.69;28.62
60319;BME280;46163;52.306;5.634;2023-08-20T08:35:53;102140.47;;;36.64;29.02
60319;BME280;46163;52.306;5.634;2023-08-20T08:42:08;102138.41;;;35.71;33.40
60319;BME280;46163;52.306;5.634;2023-08-20T08:45:17;102153.19;;;36.90;31.42
60319;BME280;46163;52.306;5.634;2023-08-20T09:02:07;102158.53;;;36.13;30.63
60319;BME280;46163;52.306;5.634;2023-08-20T09:12:42;102145.81;;;36.00;31.34
60319;BME280;46163;52.306;5.634;2023-08-20T09:15:32;102141.81;;;37.59;28.15
60319;BME280;46163;52.306;5.634;2023-08-20T09:18:04;102145.97;;;37.25;31.31
60319;BME280;46163;52.306;5.634;2023-08-20T09:21:07;102147.13;;;37.65;26.34
60319;BME280;46163;52.306;5.634;2023-08-20T09:38:03;102131.69;;;36.99;28.14
60319;BME280;46163;52.306;5.634;2023-08-20T09:41:08;102150.47;;;36.08;29.06
60319;BME280;46163;52.306;5.634;2023-08-20T09:47:11;102146.00;;;38.41;24.89
60319;BME280;46163;52.306;5.634;2023-08-20T09:50:13;102154.44;;;37.85;26.62
60319;BME280;46163;52.306;5.634;2023-08-20T09:57:12;102150.56;;;39.35;27.88
60319;BME280;46163;52.306;5.634;2023-08-20T09:59:49;102108.66;;;36.13;26.69
60319;BME280;46163;52.306;5.634;2023-08-20T10:05:52;102146.81;;;38.26;25.29
60319;BME280;46163;52.306;5.634;2023-08-20T10:08:19;102156.19;;;39.97;26.41
60319;BME280;46163;52.306;5.634;2023-08-20T10:10:45;102156.19;;;39.77;23.06
60319;BME280;46163;52.306;5.634;2023-08-20T10:13:13;102159.28;;;38.32;29.15
60319;BME280;46163;52.306;5.634;2023-08-20T10:15:39;102149.78;;;38.99;23.75
60319;BME280;46163;52.306;5.634;2023-08-20T10:18:07;102152.84;;;39.29;26.92
60319;BME280;46163;52.306;5.634;2023-08-20T10:20:33;102144.72;;;39.40;25.03
60319;BME280;46163;52.306;5.634;2023-08-20T10:23:03;102152.38;;;39.63;23.35
60319;BME280;46163;52.306;5.634;2023-08-20T10:25:30;102150.56;;;39.00;26.27
60319;BME280;46163;52.306;5.634;2023-08-20T10:28:31;102150.38;;;39.63;23.60
60319;BME280;46163;52.306;5.634;2023-08-20T10:31:03;102149.06;;;38.52;25.76
60319;BME280;46163;52.306;5.634;2023-08-20T10:33:33;102155.66;;;38.00;26.34
60319;BME280;46163;52.306;5.634;2023-08-20T10:36:13;102156.19;;;36.97;29.32
60319;BME280;46163;52.306;5.634;2023-08-20T10:38:40;102154.78;;;35.43;29.13
60319;BME280;46163;52.306;5.634;2023-08-20T10:41:09;102146.84;;;32.71;32.29
60319;BME280;46163;52.306;5.634;2023-08-20T10:43:39;102133.75;;;31.83;35.45
60319;BME280;46163;52.306;5.634;2023-08-20T10:46:15;102157.13;;;31.08;35.23
60319;BME280;46163;52.306;5.634;2023-08-20T10:48:42;102155.03;;;30.18;39.19
60319;BME280;46163;52.306;5.634;2023-08-20T10:51:13;102149.25;;;29.06;37.92
60319;BME280;46163;52.306;5.634;2023-08-20T10:53:41;102158.72;;;28.95;40.92
60319;BME280;46163;52.306;5.634;2023-08-20T10:56:16;102144.56;;;29.49;41.34
60319;BME280;46163;52.306;5.634;2023-08-20T10:58:45;102155.00;;;28.33;40.08
60319;BME280;46163;52.306;5.634;2023-08-20T11:01:24;102165.16;;;28.22;40.16
60319;BME280;46163;52.306;5.634;2023-08-20T11:03:50;102160.34;;;27.75;41.24
60319;BME280;46163;52.306;5.634;2023-08-20T11:06:17;102155.47;;;27.61;41.38
60319;BME280;46163;52.306;5.634;2023-08-20T11:08:43;102156.25;;;27.28;43.42
60319;BME280;46163;52.306;5.634;2023-08-20T11:11:10;102152.34;;;27.39;42.43
60319;BME280;46163;52.306;5.634;2023-08-20T11:13:36;102151.53;;;26.69;44.05
60319;BME280;46163;52.306;5.634;2023-08-20T11:16:03;102161.38;;;26.29;44.09
60319;BME280;46163;52.306;5.634;2023-08-20T11:18:31;102141.75;;;26.07;43.88
60319;BME280;46163;52.306;5.634;2023-08-20T11:21:00;102143.63;;;25.71;43.93
60319;BME280;46163;52.306;5.634;2023-08-20T11:23:28;102140.88;;;25.65;45.31
60319;BME280;46163;52.306;5.634;2023-08-20T11:25:53;102156.41;;;25.60;45.76
60319;BME280;46163;52.306;5.634;2023-08-20T11:28:19;102162.84;;;25.23;45.74
60319;BME280;46163;52.306;5.634;2023-08-20T11:30:46;102167.78;;;25.31;46.43
60319;BME280;46163;52.306;5.634;2023-08-20T11:33:12;102161.47;;;25.21;47.76
60319;BME280;46163;52.306;5.634;2023-08-20T11:35:37;102164.72;;;25.13;48.79
60319;BME280;46163;52.306;5.634;2023-08-20T11:38:03;102158.44;;;25.12;50.31
60319;BME280;46163;52.306;5.634;2023-08-20T11:40:29;102155.97;;;25.05;48.15
60319;BME280;46163;52.306;5.634;2023-08-20T11:42:55;102162.97;;;24.96;49.42
60319;BME280;46163;52.306;5.634;2023-08-20T11:45:21;102156.09;;;24.84;49.69
60319;BME280;46163;52.306;5.634;2023-08-20T11:47:46;102142.75;;;24.82;48.31
60319;BME280;46163;52.306;5.634;2023-08-20T11:50:12;102146.81;;;24.85;48.48
60319;BME280;46163;52.306;5.634;2023-08-20T11:52:38;102154.22;;;24.89;47.59
60319;BME280;46163;52.306;5.634;2023-08-20T11:55:07;102146.97;;;25.05;47.23
60319;BME280;46163;52.306;5.634;2023-08-20T11:57:33;102130.28;;;24.96;47.70
60319;BME280;46163;52.306;5.634;2023-08-20T12:00:04;102139.81;;;24.94;48.26
60319;BME280;46163;52.306;5.634;2023-08-20T12:02:29;102146.97;;;25.05;46.76
60319;BME280;46163;52.306;5.634;2023-08-20T12:04:56;102130.63;;;25.05;48.53
60319;BME280;46163;52.306;5.634;2023-08-20T12:07:28;102125.66;;;25.02;49.29
60319;BME280;46163;52.306;5.634;2023-08-20T12:09:56;102134.75;;;25.18;47.83
60319;BME280;46163;52.306;5.634;2023-08-20T12:12:24;102120.34;;;25.22;46.95
60319;BME280;46163;52.306;5.634;2023-08-20T12:14:52;102124.66;;;25.13;47.35
60319;BME280;46163;52.306;5.634;2023-08-20T12:17:18;102124.16;;;25.21;47.94
60319;BME280;46163;52.306;5.634;2023-08-20T12:19:45;102132.91;;;25.33;47.80
60319;BME280;46163;52.306;5.634;2023-08-20T12:22:11;102134.25;;;25.36;47.26
60319;BME280;46163;52.306;5.634;2023-08-20T12:24:37;102130.16;;;25.33;47.23
60319;BME280;46163;52.306;5.634;2023-08-20T12:27:03;102120.41;;;25.53;47.49
60319;BME280;46163;52.306;5.634;2023-08-20T12:29:29;102114.13;;;25.52;45.67
60319;BME280;46163;52.306;5.634;2023-08-20T12:31:55;102137.84;;;25.62;47.24
60319;BME280;46163;52.306;5.634;2023-08-20T12:34:21;102137.88;;;25.57;46.39
60319;BME280;46163;52.306;5.634;2023-08-20T12:36:51;102145.56;;;25.75;44.87
60319;BME280;46163;52.306;5.634;2023-08-20T12:39:18;102146.38;;;25.86;45.16
60319;BME280;46163;52.306;5.634;2023-08-20T12:41:44;102152.03;;;25.59;47.15
60319;BME280;46163;52.306;5.634;2023-08-20T12:44:11;102147.09;;;25.51;45.93
60319;BME280;46163;52.306;5.634;2023-08-20T12:46:37;102145.50;;;25.65;45.39
60319;BME280;46163;52.306;5.634;2023-08-20T12:49:03;102134.91;;;25.79;44.44
60319;BME280;46163;52.306;5.634;2023-08-20T12:51:29;102148.53;;;25.79;46.91
60319;BME280;46163;52.306;5.634;2023-08-20T12:53:54;102141.97;;;25.70;45.85
60319;BME280;46163;52.306;5.634;2023-08-20T12:56:22;102144.97;;;25.63;44.39
60319;BME280;46163;52.306;5.634;2023-08-20T12:58:47;102155.59;;;25.54;45.11
60319;BME280;46163;52.306;5.634;2023-08-20T13:01:13;102146.03;;;25.62;45.47
60319;BME280;46163;52.306;5.634;2023-08-20T13:03:39;102149.38;;;25.79;46.14
60319;BME280;46163;52.306;5.634;2023-08-20T13:06:05;102152.63;;;25.76;45.72
60319;BME280;46163;52.306;5.634;2023-08-20T13:08:31;102147.19;;;25.86;45.00
60319;BME280;46163;52.306;5.634;2023-08-20T13:10:57;102141.72;;;25.71;46.31
60319;BME280;46163;52.306;5.634;2023-08-20T13:13:24;102158.03;;;25.61;47.29
60319;BME280;46163;52.306;5.634;2023-08-20T13:15:53;102157.16;;;25.30;46.87
60319;BME280;46163;52.306;5.634;2023-08-20T13:18:19;102150.59;;;25.31;47.55
60319;BME280;46163;52.306;5.634;2023-08-20T13:20:45;102147.38;;;25.49;47.61
60319;BME280;46163;52.306;5.634;2023-08-20T13:23:11;102143.31;;;25.67;47.11
60319;BME280;46163;52.306;5.634;2023-08-20T13:25:36;102138.72;;;25.78;45.71
60319;BME280;46163;52.306;5.634;2023-08-20T13:28:02;102137.41;;;25.90;45.03
60319;BME280;46163;52.306;5.634;2023-08-20T13:30:28;102144.13;;;25.57;45.63
60319;BME280;46163;52.306;5.634;2023-08-20T13:32:56;102151.19;;;25.48;47.09
60319;BME280;46163;52.306;5.634;2023-08-20T13:35:22;102146.28;;;25.50;44.70
60319;BME280;46163;52.306;5.634;2023-08-20T13:37:48;102126.94;;;25.47;45.91
60319;BME280;46163;52.306;5.634;2023-08-20T13:40:13;102138.13;;;25.60;46.64
60319;BME280;46163;52.306;5.634;2023-08-20T13:42:39;102129.13;;;25.60;46.33
60319;BME280;46163;52.306;5.634;2023-08-20T13:45:05;102142.75;;;25.50;48.34
60319;BME280;46163;52.306;5.634;2023-08-20T13:47:30;102128.25;;;25.34;46.80
60319;BME280;46163;52.306;5.634;2023-08-20T13:49:56;102133.78;;;25.64;46.74
60319;BME280;46163;52.306;5.634;2023-08-20T13:52:22;102127.19;;;25.45;45.44
60319;BME280;46163;52.306;5.634;2023-08-20T13:54:47;102136.22;;;25.56;46.68
60319;BME280;46163;52.306;5.634;2023-08-20T13:57:13;102133.78;;;25.59;47.52